createdAt,value
2024-05-09T00:00:39.794Z,9.29
2024-05-09T00:03:25.890Z,9.32
2024-05-09T00:06:10.988Z,9.42
2024-05-09T00:08:55.887Z,9.39
2024-05-09T00:11:41.127Z,9.43
2024-05-09T00:14:26.124Z,9.41
2024-05-09T00:17:11.354Z,9.42
2024-05-09T00:19:56.297Z,9.38
2024-05-09T00:22:41.311Z,9.41
2024-05-09T00:25:26.298Z,9.42
2024-05-09T00:28:11.316Z,9.42
2024-05-09T00:30:56.455Z,9.37
2024-05-09T00:33:41.370Z,9.30
2024-05-09T00:36:26.288Z,9.38
2024-05-09T00:39:11.272Z,9.42
2024-05-09T00:41:56.944Z,9.38
2024-05-09T00:44:42.050Z,9.37
2024-05-09T00:47:27.367Z,9.30
2024-05-09T00:50:19.099Z,9.30
2024-05-09T00:53:08.224Z,9.19
2024-05-09T00:55:53.161Z,9.17
2024-05-09T00:58:38.199Z,9.14
2024-05-09T01:01:23.296Z,9.12
2024-05-09T01:04:08.443Z,9.17
2024-05-09T01:06:53.838Z,9.11
2024-05-09T01:09:38.821Z,9.04
2024-05-09T01:12:23.947Z,9.00
2024-05-09T01:15:08.963Z,9.02
2024-05-09T01:17:54.103Z,9.02
2024-05-09T01:20:42.885Z,8.99
2024-05-09T01:23:30.199Z,8.99
2024-05-09T01:26:15.559Z,8.99
2024-05-09T01:29:00.691Z,8.99
2024-05-09T01:31:45.559Z,8.97
2024-05-09T01:34:30.633Z,8.89
2024-05-09T01:37:15.705Z,8.89
2024-05-09T01:40:00.887Z,8.95
2024-05-09T01:42:45.683Z,8.86
2024-05-09T01:45:30.768Z,8.84
2024-05-09T01:48:16.072Z,8.80
2024-05-09T01:51:00.953Z,8.73
2024-05-09T01:53:45.876Z,8.68
2024-05-09T01:56:30.945Z,8.58
2024-05-09T01:59:15.818Z,8.61
2024-05-09T02:02:01.048Z,8.62
2024-05-09T02:04:46.543Z,8.66
2024-05-09T02:07:31.550Z,8.57
2024-05-09T02:10:23.341Z,8.48
2024-05-09T02:13:14.799Z,8.47
2024-05-09T02:15:59.961Z,8.38
2024-05-09T02:18:45.268Z,8.35
2024-05-09T02:21:30.234Z,8.35
2024-05-09T02:24:15.262Z,8.29
2024-05-09T02:27:00.283Z,8.24
2024-05-09T02:29:45.390Z,8.23
2024-05-09T02:32:30.703Z,8.28
2024-05-09T02:35:16.077Z,8.21
2024-05-09T02:38:01.073Z,8.23
2024-05-09T02:40:46.159Z,8.27
2024-05-09T02:43:31.082Z,8.25
2024-05-09T02:46:16.027Z,8.23
2024-05-09T02:49:01.341Z,8.23
2024-05-09T02:51:46.665Z,8.01
2024-05-09T02:54:31.755Z,7.72
2024-05-09T02:57:16.853Z,8.06
2024-05-09T03:00:01.836Z,8.09
2024-05-09T03:02:47.137Z,8.16
2024-05-09T03:05:32.228Z,8.11
2024-05-09T03:08:17.724Z,7.95
2024-05-09T03:11:02.632Z,8.01
2024-05-09T03:13:47.785Z,8.04
2024-05-09T03:16:32.902Z,8.00
2024-05-09T03:19:18.194Z,8.02
2024-05-09T03:22:03.636Z,7.95
2024-05-09T03:24:48.617Z,7.94
2024-05-09T03:27:33.594Z,7.87
2024-05-09T03:30:26.108Z,7.95
2024-05-09T03:33:21.092Z,7.93
2024-05-09T03:36:13.336Z,7.89
2024-05-09T03:38:58.440Z,7.82
2024-05-09T03:41:43.519Z,7.83
2024-05-09T03:44:28.477Z,7.89
2024-05-09T03:47:13.382Z,7.83
2024-05-09T03:49:58.365Z,7.74
2024-05-09T03:52:43.445Z,7.69
2024-05-09T03:55:28.484Z,7.64
2024-05-09T03:58:13.565Z,7.58
2024-05-09T04:00:58.501Z,7.44
2024-05-09T04:03:43.752Z,7.29
2024-05-09T04:06:28.889Z,7.52
2024-05-09T04:09:14.008Z,7.42
2024-05-09T04:11:59.110Z,7.47
2024-05-09T04:14:44.107Z,7.51
2024-05-09T04:17:29.559Z,7.52
2024-05-09T04:20:24.290Z,7.56
2024-05-09T04:23:18.418Z,7.59
2024-05-09T04:26:03.393Z,7.52
2024-05-09T04:28:48.302Z,7.59
2024-05-09T04:31:33.250Z,7.61
2024-05-09T04:34:18.333Z,7.49
2024-05-09T04:37:03.402Z,7.54
2024-05-09T04:39:48.303Z,7.66
2024-05-09T04:42:33.370Z,7.55
2024-05-09T04:45:18.366Z,7.50
2024-05-09T04:48:03.885Z,7.47
2024-05-09T04:50:49.448Z,7.57
2024-05-09T04:53:34.589Z,7.55
2024-05-09T04:56:19.742Z,7.52
2024-05-09T04:59:04.728Z,7.52
2024-05-09T05:01:49.877Z,7.56
2024-05-09T05:04:34.894Z,7.55
2024-05-09T05:07:19.901Z,7.62
2024-05-09T05:10:05.950Z,7.79
2024-05-09T05:12:51.234Z,7.69
2024-05-09T05:15:36.189Z,7.75
2024-05-09T05:18:21.381Z,7.78
2024-05-09T05:21:06.763Z,7.92
2024-05-09T05:23:51.819Z,7.98
2024-05-09T05:26:36.918Z,8.06
2024-05-09T05:29:22.017Z,8.24
2024-05-09T05:32:07.138Z,8.35
2024-05-09T05:34:52.513Z,8.56
2024-05-09T05:37:37.490Z,8.77
2024-05-09T05:40:28.680Z,9.01
2024-05-09T05:43:21.026Z,9.21
2024-05-09T05:46:06.199Z,9.40
2024-05-09T05:48:51.283Z,9.57
2024-05-09T05:51:36.377Z,9.77
2024-05-09T05:54:21.537Z,9.82
2024-05-09T05:57:06.604Z,9.94
2024-05-09T05:59:51.781Z,10.26
2024-05-09T06:02:36.982Z,10.31
2024-05-09T06:05:22.447Z,10.42
2024-05-09T06:08:07.991Z,10.54
2024-05-09T06:10:53.109Z,10.53
2024-05-09T06:13:38.123Z,10.76
2024-05-09T06:16:23.002Z,10.85
2024-05-09T06:19:08.214Z,10.91
2024-05-09T06:21:53.065Z,11.10
2024-05-09T06:24:38.206Z,11.23
2024-05-09T06:27:23.291Z,11.25
2024-05-09T06:30:12.161Z,11.30
2024-05-09T06:33:02.116Z,11.43
2024-05-09T06:35:47.169Z,11.38
2024-05-09T06:38:32.167Z,11.48
2024-05-09T06:41:17.228Z,11.55
2024-05-09T06:44:02.180Z,11.59
2024-05-09T06:46:47.356Z,11.68
2024-05-09T06:49:32.511Z,11.60
2024-05-09T06:52:17.430Z,11.75
2024-05-09T06:55:02.540Z,11.68
2024-05-09T06:57:47.449Z,11.83
2024-05-09T07:00:38.782Z,11.97
2024-05-09T07:03:26.318Z,11.98
2024-05-09T07:06:11.202Z,12.06
2024-05-09T07:08:56.070Z,12.19
2024-05-09T07:11:41.258Z,12.28
2024-05-09T07:14:26.300Z,12.39
2024-05-09T07:17:11.528Z,12.38
2024-05-09T07:19:56.369Z,12.42
2024-05-09T07:22:41.328Z,12.47
2024-05-09T07:25:26.214Z,12.55
2024-05-09T07:28:11.445Z,12.58
2024-05-09T07:30:56.590Z,12.58
2024-05-09T07:33:41.735Z,12.70
2024-05-09T07:36:26.713Z,12.86
2024-05-09T07:39:11.690Z,12.80
2024-05-09T07:41:56.913Z,12.73
2024-05-09T07:44:46.795Z,12.85
2024-05-09T07:48:57.463Z,12.75
2024-05-09T07:52:32.395Z,12.66
2024-05-09T07:53:45.820Z,12.71
2024-05-09T07:56:34.530Z,12.66
2024-05-09T07:59:19.959Z,12.77
2024-05-09T08:02:05.008Z,12.81
2024-05-09T08:04:50.536Z,12.85
2024-05-09T08:07:35.397Z,12.94
2024-05-09T08:10:24.532Z,13.07
2024-05-09T08:13:12.303Z,13.13
2024-05-09T08:15:57.678Z,13.18
2024-05-09T08:18:42.739Z,13.27
2024-05-09T08:21:27.775Z,13.42
2024-05-09T08:24:12.783Z,13.59
2024-05-09T08:26:57.690Z,13.66
2024-05-09T08:29:42.723Z,13.72
2024-05-09T08:32:27.844Z,13.91
2024-05-09T08:35:13.263Z,14.00
2024-05-09T08:37:58.598Z,13.94
2024-05-09T08:40:44.404Z,13.87
2024-05-09T08:43:29.757Z,14.10
2024-05-09T08:46:14.870Z,14.16
2024-05-09T08:48:59.996Z,14.08
2024-05-09T08:51:45.478Z,14.19
2024-05-09T08:54:30.557Z,14.42
2024-05-09T08:57:15.656Z,14.44
2024-05-09T09:00:00.700Z,14.74
2024-05-09T09:02:45.816Z,14.87
2024-05-09T09:05:30.939Z,14.88
2024-05-09T09:08:16.226Z,15.08
2024-05-09T09:11:01.347Z,15.01
2024-05-09T09:13:46.188Z,15.17
2024-05-09T09:16:31.355Z,15.17
2024-05-09T09:19:16.782Z,15.28
2024-05-09T09:22:02.173Z,15.53
2024-05-09T09:24:47.396Z,15.61
2024-05-09T09:27:32.417Z,15.79
2024-05-09T09:30:31.401Z,15.73
2024-05-09T09:33:21.793Z,15.84
2024-05-09T09:36:08.978Z,16.26
2024-05-09T09:38:55.815Z,16.60
2024-05-09T09:41:40.912Z,16.88
2024-05-09T09:44:25.818Z,16.73
2024-05-09T09:47:10.997Z,16.80
2024-05-09T09:49:55.917Z,16.65
2024-05-09T09:52:40.881Z,16.61
2024-05-09T09:55:25.982Z,16.71
2024-05-09T09:58:13.529Z,16.66
2024-05-09T10:00:59.727Z,16.73
2024-05-09T10:03:44.847Z,16.98
2024-05-09T10:06:31.399Z,17.17
2024-05-09T10:09:16.611Z,16.69
2024-05-09T10:12:01.589Z,16.90
2024-05-09T10:14:46.690Z,17.01
2024-05-09T10:17:31.814Z,17.14
2024-05-09T10:20:21.919Z,17.13
2024-05-09T10:23:10.281Z,17.18
2024-05-09T10:25:55.388Z,17.34
2024-05-09T10:28:40.331Z,17.13
2024-05-09T10:31:25.367Z,17.03
2024-05-09T10:34:10.436Z,16.94
2024-05-09T10:36:56.059Z,17.24
2024-05-09T10:39:41.388Z,17.28
2024-05-09T10:42:26.506Z,17.39
2024-05-09T10:45:11.461Z,17.30
2024-05-09T10:47:56.783Z,17.33
2024-05-09T10:50:42.179Z,17.40
2024-05-09T10:53:27.160Z,17.50
2024-05-09T10:56:12.513Z,17.65
2024-05-09T10:58:57.427Z,17.91
2024-05-09T11:01:42.668Z,18.03
2024-05-09T11:04:27.717Z,17.93
2024-05-09T11:07:12.794Z,17.89
2024-05-09T11:09:57.876Z,17.80
2024-05-09T11:12:42.762Z,17.74
2024-05-09T11:15:27.854Z,17.71
2024-05-09T11:18:13.243Z,17.23
2024-05-09T11:20:58.355Z,17.32
2024-05-09T11:23:43.410Z,17.25
2024-05-09T11:26:28.420Z,17.09
2024-05-09T11:29:15.663Z,17.47
2024-05-09T11:32:02.110Z,17.67
2024-05-09T11:34:46.983Z,17.76
2024-05-09T11:37:34.023Z,17.93
2024-05-09T11:40:25.576Z,18.15
2024-05-09T11:43:17.190Z,18.25
2024-05-09T11:46:02.420Z,18.19
2024-05-09T11:48:48.011Z,18.11
2024-05-09T11:51:33.354Z,18.00
2024-05-09T11:54:18.418Z,17.75
2024-05-09T11:57:03.433Z,17.96
2024-05-09T11:59:48.529Z,18.15
2024-05-09T12:02:33.897Z,18.25
2024-05-09T12:05:19.500Z,18.38
2024-05-09T12:08:04.719Z,18.30
2024-05-09T12:10:49.931Z,18.38
2024-05-09T12:13:35.255Z,18.35
2024-05-09T12:16:20.857Z,18.63
2024-05-09T12:19:06.343Z,18.54
2024-05-09T12:21:51.290Z,18.47
2024-05-09T12:24:36.327Z,18.41
2024-05-09T12:27:21.360Z,18.54
2024-05-09T12:30:08.948Z,18.77
2024-05-09T12:32:56.436Z,18.88
2024-05-09T12:35:44.282Z,18.99
2024-05-09T12:38:31.435Z,18.99
2024-05-09T12:41:16.583Z,18.87
2024-05-09T12:44:01.559Z,18.92
2024-05-09T12:46:46.490Z,18.84
2024-05-09T12:49:31.778Z,18.96
2024-05-09T12:52:17.226Z,18.81
2024-05-09T12:55:02.274Z,19.02
2024-05-09T12:57:47.311Z,18.86
2024-05-09T13:00:34.277Z,18.85
2024-05-09T13:03:20.175Z,18.84
2024-05-09T13:06:05.470Z,18.67
2024-05-09T13:08:50.533Z,18.91
2024-05-09T13:11:35.689Z,19.11
2024-05-09T13:14:20.626Z,19.17
2024-05-09T13:17:05.666Z,19.24
2024-05-09T13:19:50.646Z,19.31
2024-05-09T13:22:35.748Z,18.89
2024-05-09T13:25:20.833Z,19.09
2024-05-09T13:28:06.083Z,18.98
2024-05-09T13:30:51.590Z,19.02
2024-05-09T13:33:36.646Z,18.95
2024-05-09T13:36:21.579Z,18.97
2024-05-09T13:39:06.474Z,19.17
2024-05-09T13:41:51.667Z,19.15
2024-05-09T13:44:36.796Z,19.27
2024-05-09T13:47:21.721Z,19.17
2024-05-09T13:50:09.096Z,19.32
2024-05-09T13:52:56.535Z,19.27
2024-05-09T13:55:41.615Z,19.34
2024-05-09T13:58:26.843Z,19.30
2024-05-09T14:01:11.961Z,19.47
2024-05-09T14:03:57.127Z,19.55
2024-05-09T14:06:42.548Z,19.55
2024-05-09T14:09:27.578Z,19.65
2024-05-09T14:12:12.754Z,19.02
2024-05-09T14:14:57.723Z,19.30
2024-05-09T14:17:42.952Z,19.50
2024-05-09T14:20:31.453Z,19.41
2024-05-09T14:23:17.546Z,19.53
2024-05-09T14:26:02.667Z,19.62
2024-05-09T14:28:47.715Z,19.59
2024-05-09T14:31:34.841Z,19.70
2024-05-09T14:34:20.826Z,19.72
2024-05-09T14:37:06.069Z,19.80
2024-05-09T14:39:51.214Z,19.70
2024-05-09T14:42:36.177Z,19.79
2024-05-09T14:45:21.247Z,19.57
2024-05-09T14:48:06.410Z,19.59
2024-05-09T14:50:51.404Z,19.56
2024-05-09T14:53:36.393Z,19.66
2024-05-09T14:56:21.464Z,19.88
2024-05-09T14:59:06.701Z,19.82
2024-05-09T15:01:51.806Z,19.73
2024-05-09T15:04:36.992Z,19.61
2024-05-09T15:07:21.991Z,19.60
2024-05-09T15:10:13.508Z,19.56
2024-05-09T15:13:01.778Z,19.54
2024-05-09T15:15:46.810Z,19.61
2024-05-09T15:18:31.924Z,19.65
2024-05-09T15:21:17.410Z,19.70
2024-05-09T15:24:02.335Z,19.75
2024-05-09T15:26:47.426Z,19.67
2024-05-09T15:29:32.467Z,19.68
2024-05-09T15:32:17.444Z,19.63
2024-05-09T15:35:02.559Z,19.55
2024-05-09T15:37:47.467Z,19.39
2024-05-09T15:40:39.076Z,19.34
2024-05-09T15:43:25.887Z,19.33
2024-05-09T15:46:11.204Z,19.32
2024-05-09T15:48:56.292Z,19.37
2024-05-09T15:51:41.349Z,19.37
2024-05-09T15:54:26.343Z,19.33
2024-05-09T15:57:11.452Z,19.32
2024-05-09T15:59:56.380Z,19.06
2024-05-09T16:02:41.639Z,19.10
2024-05-09T16:05:27.211Z,19.11
2024-05-09T16:08:12.542Z,19.09
2024-05-09T16:10:57.875Z,18.95
2024-05-09T16:13:43.163Z,18.93
2024-05-09T16:16:28.376Z,18.88
2024-05-09T16:19:13.441Z,18.88
2024-05-09T16:21:59.116Z,18.79
2024-05-09T16:24:44.153Z,18.61
2024-05-09T16:27:29.161Z,18.57
2024-05-09T16:30:21.305Z,18.45
2024-05-09T16:33:13.134Z,18.34
2024-05-09T16:35:58.434Z,18.20
2024-05-09T16:38:43.561Z,18.15
2024-05-09T16:41:28.554Z,18.04
2024-05-09T16:44:13.632Z,17.93
2024-05-09T16:46:58.693Z,17.86
2024-05-09T16:49:43.556Z,17.86
2024-05-09T16:52:28.601Z,17.76
2024-05-09T16:55:13.837Z,17.74
2024-05-09T16:57:58.911Z,17.71
2024-05-09T17:00:44.686Z,17.65
2024-05-09T17:03:29.663Z,17.54
2024-05-09T17:06:14.617Z,17.35
2024-05-09T17:09:08.118Z,17.33
2024-05-09T17:11:56.814Z,17.21
2024-05-09T17:14:41.981Z,17.14
2024-05-09T17:17:27.226Z,17.17
2024-05-09T17:20:22.586Z,17.16
2024-05-09T17:23:14.542Z,17.07
2024-05-09T17:25:59.704Z,16.97
2024-05-09T17:28:44.701Z,16.92
2024-05-09T17:31:30.068Z,16.73
2024-05-09T17:34:15.506Z,16.66
2024-05-09T17:37:01.023Z,16.57
2024-05-09T17:39:46.216Z,16.65
2024-05-09T17:42:31.155Z,16.59
2024-05-09T17:45:16.185Z,16.48
2024-05-09T17:48:01.696Z,16.33
2024-05-09T17:50:47.236Z,16.20
2024-05-09T17:53:32.747Z,16.11
2024-05-09T17:56:17.879Z,16.05
2024-05-09T17:59:02.961Z,16.00
2024-05-09T18:01:48.072Z,15.85
2024-05-09T18:04:33.834Z,15.76
2024-05-09T18:07:19.170Z,15.59
2024-05-09T18:10:06.064Z,15.48
2024-05-09T18:12:52.803Z,15.54
2024-05-09T18:15:38.338Z,15.39
2024-05-09T18:18:24.006Z,15.31
2024-05-09T18:21:08.823Z,15.29
2024-05-09T18:23:55.497Z,15.28
2024-05-09T18:26:42.192Z,15.24
2024-05-09T18:29:27.182Z,15.22
2024-05-09T18:32:12.194Z,15.11
2024-05-09T18:34:57.326Z,14.99
2024-05-09T18:37:42.245Z,14.89
2024-05-09T18:40:33.122Z,14.82
2024-05-09T18:43:28.479Z,14.84
2024-05-09T18:46:16.544Z,14.87
2024-05-09T18:49:01.715Z,14.73
2024-05-09T18:51:46.646Z,14.62
2024-05-09T18:54:31.657Z,14.65
2024-05-09T18:57:16.677Z,14.46
2024-05-09T19:00:01.925Z,14.29
2024-05-09T19:02:48.681Z,14.42
2024-05-09T19:05:34.257Z,14.28
2024-05-09T19:08:19.528Z,14.29
2024-05-09T19:11:04.589Z,14.21
2024-05-09T19:13:49.702Z,13.95
2024-05-09T19:16:34.754Z,14.04
2024-05-09T19:19:20.002Z,13.88
2024-05-09T19:22:05.224Z,13.71
2024-05-09T19:24:50.253Z,13.80
2024-05-09T19:27:35.259Z,13.46
2024-05-09T19:30:29.283Z,13.50
2024-05-09T19:33:21.947Z,13.41
2024-05-09T19:36:06.929Z,13.39
2024-05-09T19:38:52.004Z,13.42
2024-05-09T19:41:37.176Z,13.40
2024-05-09T19:44:22.280Z,13.42
2024-05-09T19:47:07.321Z,13.40
2024-05-09T19:49:52.371Z,13.35
2024-05-09T19:52:37.362Z,13.28
2024-05-09T19:55:22.444Z,13.21
2024-05-09T19:58:08.183Z,13.13
2024-05-09T20:00:53.771Z,12.99
2024-05-09T20:03:38.742Z,13.05
2024-05-09T20:06:24.265Z,13.03
2024-05-09T20:09:09.179Z,12.93
2024-05-09T20:11:54.282Z,12.97
2024-05-09T20:14:39.214Z,12.86
2024-05-09T20:17:24.525Z,12.72
2024-05-09T20:20:16.750Z,12.73
2024-05-09T20:23:09.801Z,12.64
2024-05-09T20:25:55.074Z,12.68
2024-05-09T20:28:40.084Z,12.53
2024-05-09T20:31:25.490Z,12.49
2024-05-09T20:34:10.734Z,12.57
2024-05-09T20:36:55.934Z,12.56
2024-05-09T20:39:40.987Z,12.52
2024-05-09T20:42:25.961Z,12.47
2024-05-09T20:45:10.921Z,12.47
2024-05-09T20:47:56.266Z,12.46
2024-05-09T20:50:42.678Z,12.48
2024-05-09T20:53:27.944Z,12.50
2024-05-09T20:56:13.026Z,12.39
2024-05-09T20:58:58.295Z,12.32
2024-05-09T21:01:45.637Z,12.39
2024-05-09T21:04:32.906Z,12.36
2024-05-09T21:07:18.375Z,12.35
2024-05-09T21:10:04.712Z,12.23
2024-05-09T21:12:53.631Z,12.24
2024-05-09T21:15:38.830Z,12.20
2024-05-09T21:18:23.762Z,12.14
2024-05-09T21:21:08.945Z,12.11
2024-05-09T21:23:54.019Z,12.12
2024-05-09T21:26:38.946Z,12.03
2024-05-09T21:29:23.878Z,11.86
2024-05-09T21:32:09.056Z,11.89
2024-05-09T21:34:54.148Z,11.85
2024-05-09T21:37:39.119Z,11.80
2024-05-09T21:40:31.648Z,11.86
2024-05-09T21:43:20.169Z,11.86
2024-05-09T21:46:05.852Z,11.88
2024-05-09T21:48:50.830Z,11.82
2024-05-09T21:51:35.897Z,11.87
2024-05-09T21:54:20.862Z,11.83
2024-05-09T21:57:06.030Z,11.78
2024-05-09T21:59:50.959Z,11.78
2024-05-09T22:02:36.216Z,11.77
2024-05-09T22:05:21.213Z,11.73
2024-05-09T22:08:06.267Z,11.69
2024-05-09T22:10:51.534Z,11.61
2024-05-09T22:13:36.751Z,11.60
2024-05-09T22:16:22.057Z,11.61
2024-05-09T22:19:07.439Z,11.55
2024-05-09T22:21:52.489Z,11.56
2024-05-09T22:24:37.632Z,11.57
2024-05-09T22:27:22.493Z,11.60
2024-05-09T22:30:11.770Z,11.47
2024-05-09T22:33:00.203Z,11.45
2024-05-09T22:35:45.168Z,11.40
2024-05-09T22:38:30.153Z,11.38
2024-05-09T22:41:15.170Z,11.41
2024-05-09T22:44:00.310Z,11.30
2024-05-09T22:46:45.431Z,11.32
2024-05-09T22:49:30.444Z,11.33
2024-05-09T22:52:15.313Z,11.29
2024-05-09T22:55:00.263Z,11.35
2024-05-09T22:57:45.347Z,11.26
2024-05-09T23:00:32.339Z,11.30
2024-05-09T23:03:18.336Z,11.25
2024-05-09T23:06:03.294Z,11.18
2024-05-09T23:08:48.286Z,11.20
2024-05-09T23:11:33.545Z,11.19
2024-05-09T23:14:18.583Z,11.08
2024-05-09T23:17:03.539Z,11.04
2024-05-09T23:19:48.474Z,11.15
2024-05-09T23:22:33.606Z,10.76
2024-05-09T23:25:18.774Z,10.99
2024-05-09T23:28:03.782Z,10.94
2024-05-09T23:30:49.454Z,10.96
2024-05-09T23:33:34.620Z,10.85
2024-05-09T23:36:19.956Z,10.88
2024-05-09T23:39:05.013Z,10.88
2024-05-09T23:41:50.097Z,10.86
2024-05-09T23:44:35.256Z,10.87
2024-05-09T23:47:20.359Z,10.88
2024-05-09T23:50:08.947Z,10.82
2024-05-09T23:52:59.101Z,10.80
2024-05-09T23:55:44.136Z,10.85
2024-05-09T23:58:29.128Z,10.74
